createdAt,value
2023-05-19T00:07:40.288Z,3.53
2023-05-19T00:18:02.215Z,3.97
2023-05-19T00:28:23.411Z,4.07
2023-05-19T00:38:45.106Z,3.72
2023-05-19T00:49:06.551Z,4.03
2023-05-19T00:59:28.135Z,2.85
2023-05-19T01:09:49.694Z,5.18
2023-05-19T01:20:26.172Z,4.20
2023-05-19T01:30:56.096Z,5.18
2023-05-19T01:41:20.092Z,4.00
2023-05-19T01:51:41.657Z,5.40
2023-05-19T02:02:12.809Z,6.38
2023-05-19T02:12:40.310Z,4.22
2023-05-19T02:23:02.693Z,3.90
2023-05-19T02:33:26.283Z,4.32
2023-05-19T02:43:47.801Z,2.78
2023-05-19T02:54:09.327Z,3.08
2023-05-19T03:04:30.757Z,5.47
2023-05-19T03:14:52.145Z,3.28
2023-05-19T03:25:13.576Z,5.00
2023-05-19T03:35:35.810Z,5.15
2023-05-19T03:45:57.596Z,4.88
2023-05-19T03:56:40.291Z,5.43
2023-05-19T04:07:02.595Z,3.80
2023-05-19T04:17:26.608Z,4.60
2023-05-19T04:27:49.625Z,4.43
2023-05-19T04:38:12.216Z,3.95
2023-05-19T04:48:35.026Z,4.22
2023-05-19T04:58:56.444Z,5.10
2023-05-19T05:09:20.158Z,3.47
2023-05-19T05:19:42.050Z,3.33
2023-05-19T05:30:04.506Z,3.80
2023-05-19T05:40:26.577Z,3.72
2023-05-19T05:50:50.496Z,4.10
2023-05-19T06:01:17.299Z,3.55
2023-05-19T06:11:39.339Z,3.50
2023-05-19T06:22:01.576Z,4.53
2023-05-19T06:32:24.560Z,3.83
2023-05-19T06:42:46.932Z,2.70
2023-05-19T06:53:11.294Z,4.30
2023-05-19T07:03:33.180Z,2.65
2023-05-19T07:13:55.187Z,3.92
2023-05-19T07:24:22.574Z,4.50
2023-05-19T07:34:43.988Z,3.28
2023-05-19T07:45:06.218Z,2.70
2023-05-19T07:55:27.553Z,3.00
2023-05-19T08:05:48.808Z,2.17
2023-05-19T08:16:10.493Z,3.17
2023-05-19T08:26:31.755Z,4.85
2023-05-19T08:36:53.786Z,3.45
2023-05-19T08:47:15.582Z,3.28
2023-05-19T08:57:37.510Z,2.80
2023-05-19T09:08:03.045Z,2.30
2023-05-19T09:18:26.497Z,3.53
2023-05-19T09:28:48.185Z,3.75
2023-05-19T09:39:29.081Z,3.78
2023-05-19T09:49:52.525Z,3.20
2023-05-19T10:00:19.924Z,2.95
2023-05-19T10:10:41.753Z,3.28
2023-05-19T10:21:02.892Z,2.92
2023-05-19T10:31:24.945Z,3.03
2023-05-19T10:41:50.214Z,3.28
2023-05-19T10:52:22.194Z,2.53
2023-05-19T11:02:44.355Z,3.25
2023-05-19T11:13:06.784Z,2.70
2023-05-19T11:23:28.319Z,2.58
2023-05-19T11:33:49.741Z,2.72
2023-05-19T11:44:12.399Z,2.40
2023-05-19T11:54:36.769Z,3.35
2023-05-19T12:04:58.093Z,4.30
2023-05-19T12:15:23.625Z,2.55
2023-05-19T12:25:45.080Z,2.17
2023-05-19T12:36:07.819Z,2.30
2023-05-19T12:46:33.231Z,1.83
2023-05-19T12:56:54.808Z,2.28
2023-05-19T13:07:16.425Z,1.80
2023-05-19T13:17:37.566Z,2.70
2023-05-19T13:28:01.429Z,2.05
2023-05-19T13:38:22.876Z,2.45
2023-05-19T13:48:44.530Z,2.75
2023-05-19T13:59:05.672Z,2.20
2023-05-19T14:09:28.136Z,4.13
2023-05-19T14:19:50.895Z,2.78
2023-05-19T14:30:12.285Z,2.13
2023-05-19T14:40:34.306Z,2.45
2023-05-19T14:50:56.025Z,2.28
2023-05-19T15:01:18.022Z,2.53
2023-05-19T15:11:39.558Z,2.10
2023-05-19T15:22:00.712Z,2.13
2023-05-19T15:32:21.971Z,2.97
2023-05-19T15:42:43.570Z,3.70
2023-05-19T15:53:07.070Z,2.15
2023-05-19T16:03:28.244Z,2.58
2023-05-19T16:13:49.840Z,2.22
2023-05-19T16:24:11.070Z,3.00
2023-05-19T16:34:32.353Z,2.20
2023-05-19T16:44:54.092Z,2.97
2023-05-19T16:55:19.916Z,2.40
2023-05-19T17:16:05.792Z,2.67
2023-05-19T17:26:27.687Z,4.57
2023-05-19T17:36:49.854Z,3.30
2023-05-19T17:47:11.301Z,3.15
2023-05-19T17:57:34.519Z,34.42
2023-05-19T18:07:57.402Z,401.55
2023-05-19T18:18:18.781Z,1999.90
2023-05-19T18:28:41.436Z,777.03
2023-05-19T18:39:03.011Z,485.25
2023-05-19T18:49:25.277Z,432.85
2023-05-19T18:59:47.440Z,398.17
2023-05-19T19:10:09.538Z,342.20
2023-05-19T19:20:31.092Z,319.17
2023-05-19T19:30:52.471Z,294.60
2023-05-19T19:41:14.053Z,219.43
2023-05-19T19:51:35.526Z,201.98
2023-05-19T20:01:57.088Z,175.98
2023-05-19T20:12:18.872Z,178.77
2023-05-19T20:22:40.745Z,173.60
2023-05-19T20:33:03.439Z,165.05
2023-05-19T20:43:24.602Z,141.75
2023-05-19T20:53:46.063Z,135.98
2023-05-19T21:04:07.935Z,112.65
2023-05-19T21:14:29.895Z,107.75
2023-05-19T21:24:51.734Z,96.85
2023-05-19T21:35:13.077Z,89.50
2023-05-19T21:45:34.548Z,79.60
2023-05-19T21:55:56.038Z,69.78
2023-05-19T22:06:17.374Z,68.28
2023-05-19T22:16:39.030Z,58.97
2023-05-19T22:27:00.652Z,50.92
2023-05-19T22:37:23.780Z,50.97
2023-05-19T22:47:45.147Z,45.33
2023-05-19T22:58:06.885Z,39.55
2023-05-19T23:08:28.235Z,39.05
2023-05-19T23:18:49.676Z,39.58
2023-05-19T23:29:13.153Z,28.10
2023-05-19T23:39:34.726Z,30.20
2023-05-19T23:49:56.021Z,26.13
